createdAt,value
2018-11-22T00:00:04.318Z,30.33
2018-11-22T00:05:07.894Z,29.73
2018-11-22T00:10:13.130Z,31.10
2018-11-22T00:15:17.400Z,32.30
2018-11-22T00:20:21.456Z,32.50
2018-11-22T00:25:26.971Z,31.67
2018-11-22T00:30:30.537Z,31.47
2018-11-22T00:35:34.046Z,33.50
2018-11-22T00:40:37.535Z,29.30
2018-11-22T00:45:41.426Z,32.07
2018-11-22T00:50:45.484Z,31.47
2018-11-22T00:55:49.024Z,30.80
2018-11-22T01:00:56.089Z,30.10
2018-11-22T01:05:59.751Z,30.47
2018-11-22T01:11:05.695Z,30.63
2018-11-22T01:16:09.210Z,28.77
2018-11-22T01:21:12.832Z,30.17
2018-11-22T01:26:17.396Z,31.10
2018-11-22T01:31:20.916Z,30.40
2018-11-22T01:36:24.406Z,29.27
2018-11-22T01:41:27.928Z,30.17
2018-11-22T01:46:31.483Z,31.30
2018-11-22T01:51:35.192Z,32.47
2018-11-22T01:56:38.732Z,30.20
2018-11-22T02:01:42.207Z,31.77
2018-11-22T02:06:45.795Z,31.37
2018-11-22T02:11:49.364Z,31.10
2018-11-22T02:16:52.940Z,29.37
2018-11-22T02:21:56.491Z,28.77
2018-11-22T02:26:59.928Z,29.83
2018-11-22T02:32:03.447Z,28.17
2018-11-22T02:37:06.914Z,29.33
2018-11-22T02:42:10.612Z,29.37
2018-11-22T02:47:14.088Z,27.63
2018-11-22T02:52:17.614Z,29.30
2018-11-22T02:57:21.133Z,30.13
2018-11-22T03:02:24.777Z,28.50
2018-11-22T03:07:28.293Z,31.33
2018-11-22T03:12:31.891Z,28.60
2018-11-22T03:17:35.429Z,29.07
2018-11-22T03:22:39.724Z,30.57
2018-11-22T03:27:44.234Z,29.43
2018-11-22T03:32:47.852Z,29.97
2018-11-22T03:37:51.353Z,26.23
2018-11-22T03:42:55.276Z,31.37
2018-11-22T03:47:58.898Z,28.70
2018-11-22T03:53:02.365Z,28.53
2018-11-22T03:58:05.900Z,28.90
2018-11-22T04:03:09.390Z,27.73
2018-11-22T04:08:12.957Z,30.17
2018-11-22T04:13:16.471Z,28.30
2018-11-22T04:18:19.939Z,28.57
2018-11-22T04:23:23.528Z,28.67
2018-11-22T04:28:27.065Z,28.53
2018-11-22T04:33:30.562Z,28.60
2018-11-22T04:38:34.168Z,27.63
2018-11-22T04:43:38.052Z,27.33
2018-11-22T04:48:41.966Z,29.47
2018-11-22T04:53:45.475Z,28.87
2018-11-22T04:58:48.988Z,28.00
2018-11-22T05:03:52.539Z,26.43
2018-11-22T05:08:56.093Z,27.80
2018-11-22T05:14:00.679Z,29.40
2018-11-22T05:19:04.288Z,28.63
2018-11-22T05:24:07.807Z,27.10
2018-11-22T05:29:12.467Z,27.00
2018-11-22T05:34:15.788Z,27.40
2018-11-22T05:39:19.289Z,28.37
2018-11-22T05:44:22.872Z,29.73
2018-11-22T05:49:26.337Z,28.43
2018-11-22T05:54:30.151Z,28.57
2018-11-22T05:59:33.636Z,26.80
2018-11-22T06:04:37.158Z,29.50
2018-11-22T06:09:41.048Z,27.57
2018-11-22T06:14:45.058Z,27.90
2018-11-22T06:19:48.788Z,27.37
2018-11-22T06:24:52.419Z,29.97
2018-11-22T06:29:56.072Z,29.93
2018-11-22T06:34:59.603Z,29.70
2018-11-22T06:40:03.533Z,30.10
2018-11-22T06:45:10.281Z,28.13
2018-11-22T06:50:15.034Z,29.40
2018-11-22T06:55:20.116Z,27.77
2018-11-22T07:00:24.837Z,29.83
2018-11-22T07:05:28.479Z,28.83
2018-11-22T07:10:32.035Z,28.97
2018-11-22T07:15:35.539Z,29.97
2018-11-22T07:20:40.847Z,29.00
2018-11-22T07:25:44.672Z,28.33
2018-11-22T07:30:48.297Z,30.03
2018-11-22T07:35:52.017Z,29.30
2018-11-22T07:40:56.608Z,31.23
2018-11-22T07:46:00.614Z,30.60
2018-11-22T07:51:04.205Z,28.60
2018-11-22T07:56:07.922Z,29.93
2018-11-22T08:01:17.615Z,28.80
2018-11-22T08:06:22.035Z,28.17
2018-11-22T08:11:26.728Z,28.47
2018-11-22T08:16:30.200Z,28.40
2018-11-22T08:21:39.929Z,28.07
2018-11-22T08:26:43.657Z,27.53
2018-11-22T08:31:48.270Z,29.50
2018-11-22T08:36:51.806Z,29.07
2018-11-22T08:41:55.914Z,29.60
2018-11-22T08:46:59.607Z,28.87
2018-11-22T08:52:03.148Z,30.30
2018-11-22T08:57:09.293Z,28.10
2018-11-22T12:17:42.621Z,63.03
2018-11-22T12:22:47.454Z,56.87
2018-11-22T12:27:52.519Z,48.63
2018-11-22T12:32:58.994Z,44.70
2018-11-22T12:38:34.992Z,40.67
2018-11-22T12:43:38.535Z,36.47
2018-11-22T12:48:42.420Z,33.93
2018-11-22T12:53:45.887Z,31.63
2018-11-22T12:58:49.504Z,28.43
2018-11-22T13:03:52.987Z,26.67
2018-11-22T13:08:56.502Z,25.67
2018-11-22T13:14:00.151Z,24.27
2018-11-22T13:19:03.622Z,22.03
2018-11-22T13:24:07.264Z,20.83
2018-11-22T13:29:10.853Z,20.70
2018-11-22T13:34:14.424Z,20.40
2018-11-22T13:39:18.039Z,18.37
2018-11-22T13:44:21.930Z,18.63
2018-11-22T13:49:26.535Z,19.33
2018-11-22T13:54:30.111Z,17.93
2018-11-22T13:59:37.755Z,18.17
2018-11-22T14:04:41.329Z,17.10
2018-11-22T14:09:44.991Z,16.80
2018-11-22T14:14:48.967Z,16.87
2018-11-22T14:19:52.722Z,15.53
2018-11-22T14:24:56.258Z,15.27
2018-11-22T14:29:59.879Z,15.27
2018-11-22T14:35:03.627Z,15.47
2018-11-22T14:40:10.881Z,14.70
2018-11-22T14:45:15.222Z,14.43
2018-11-22T14:50:23.218Z,14.60
2018-11-22T14:55:26.743Z,13.60
2018-11-22T15:00:30.291Z,13.50
2018-11-22T15:05:33.852Z,15.63
2018-11-22T15:10:37.603Z,14.73
2018-11-22T15:15:41.144Z,13.57
2018-11-22T15:20:44.653Z,15.53
2018-11-22T15:25:49.215Z,15.43
2018-11-22T15:30:52.745Z,14.37
2018-11-22T15:35:56.319Z,15.20
2018-11-22T15:52:20.880Z,20.87
2018-11-22T15:57:24.340Z,22.83
2018-11-22T16:02:27.910Z,21.77
2018-11-22T16:07:33.197Z,20.47
2018-11-22T16:12:36.875Z,22.17
2018-11-22T16:17:40.907Z,20.47
2018-11-22T16:22:47.623Z,22.13
2018-11-22T16:27:51.383Z,21.23
2018-11-22T16:32:55.160Z,19.93
2018-11-22T16:37:58.671Z,19.80
2018-11-22T16:43:03.457Z,21.47
2018-11-22T16:48:10.889Z,20.63
2018-11-22T16:53:15.475Z,20.80
2018-11-22T16:58:18.967Z,19.87
2018-11-22T17:03:22.500Z,21.90
2018-11-22T17:08:26.116Z,22.47
2018-11-22T17:13:29.900Z,20.73
2018-11-22T17:18:33.612Z,21.63
2018-11-22T17:23:37.784Z,20.83
2018-11-22T17:28:41.311Z,19.40
2018-11-22T17:33:44.907Z,20.77
2018-11-22T17:38:48.544Z,22.30
2018-11-22T17:43:52.117Z,19.57
2018-11-22T17:48:55.595Z,17.97
2018-11-22T17:54:01.228Z,18.57
2018-11-22T17:59:05.816Z,17.97
2018-11-22T18:04:09.396Z,17.40
2018-11-22T18:09:12.924Z,18.30
2018-11-22T18:14:16.842Z,17.40
2018-11-22T18:19:20.325Z,19.17
2018-11-22T18:24:23.807Z,18.23
2018-11-22T18:29:28.303Z,18.97
2018-11-22T18:34:31.868Z,17.17
2018-11-22T18:39:35.569Z,18.00
2018-11-22T18:44:39.200Z,18.33
2018-11-22T18:49:42.895Z,16.80
2018-11-22T18:54:46.464Z,18.57
2018-11-22T18:59:52.506Z,17.87
2018-11-22T19:04:59.727Z,17.50
2018-11-22T19:10:05.128Z,18.73
2018-11-22T19:15:10.965Z,18.20
2018-11-22T19:20:18.510Z,17.30
2018-11-22T19:25:24.332Z,16.27
2018-11-22T19:30:37.104Z,16.87
2018-11-22T19:35:36.624Z,17.07
2018-11-22T19:40:41.142Z,18.83
2018-11-22T19:45:46.720Z,17.47
2018-11-22T19:50:50.456Z,16.13
2018-11-22T19:55:54.134Z,17.60
2018-11-22T20:00:57.840Z,18.33
2018-11-22T20:06:01.503Z,23.03
2018-11-22T20:11:05.681Z,20.43
2018-11-22T20:16:09.523Z,21.93
2018-11-22T20:21:13.351Z,19.77
2018-11-22T20:26:18.133Z,20.30
2018-11-22T20:31:22.223Z,20.37
2018-11-22T20:36:26.688Z,22.87
2018-11-22T20:41:30.593Z,22.17
2018-11-22T20:46:34.294Z,23.13
2018-11-22T20:51:38.146Z,22.93
2018-11-22T20:56:41.981Z,18.53
2018-11-22T21:01:51.486Z,18.80
2018-11-22T21:06:49.811Z,20.90
2018-11-22T21:11:54.136Z,22.37
2018-11-22T21:16:58.270Z,23.47
2018-11-22T21:22:02.084Z,20.93
2018-11-22T21:27:05.927Z,21.17
2018-11-22T21:32:09.648Z,23.37
2018-11-22T21:37:13.389Z,22.23
2018-11-22T21:42:17.075Z,21.13
2018-11-22T21:47:20.674Z,21.73
2018-11-22T21:52:24.319Z,25.07
2018-11-22T21:57:28.034Z,25.93
2018-11-22T22:02:31.618Z,23.53
2018-11-22T22:07:35.297Z,24.67
2018-11-22T22:12:39.411Z,26.03
2018-11-22T22:17:44.008Z,23.77
2018-11-22T22:22:47.824Z,20.07
2018-11-22T22:27:51.907Z,21.60
2018-11-22T22:32:56.930Z,21.13
2018-11-22T22:38:00.508Z,19.40
2018-11-22T22:43:04.118Z,20.33
2018-11-22T22:48:07.837Z,19.73
2018-11-22T22:53:11.431Z,20.30
2018-11-22T22:58:15.118Z,20.20
2018-11-22T23:03:18.858Z,17.93
2018-11-22T23:08:22.457Z,19.23
2018-11-22T23:13:26.081Z,19.30
2018-11-22T23:18:29.721Z,19.27
2018-11-22T23:23:33.306Z,18.10
2018-11-22T23:28:37.074Z,18.27
2018-11-22T23:33:40.649Z,17.90
2018-11-22T23:38:44.218Z,17.63
2018-11-22T23:43:47.837Z,17.00
2018-11-22T23:48:51.571Z,17.17
2018-11-22T23:53:55.183Z,18.07
2018-11-22T23:58:58.907Z,16.73
